Historyczne dane pomiarowe

Dodano dane terminowe – wersja testowa.

Dane z okresu 1951-2019

Wersja bazy: 1.34 [2019-03-16, lista zmian], aktualizacja planowana na 2019-04-15

Dane meteo z obszaru Polski uzyskane na podstawie danych udostępnionych przez Instytut Meteorologii i Gospodarki Wodnej – Państwowy Instytut Badawczy.

 

Wybierz Datę:    

       

TemperaturaWilgotnośćZachmurzenieWiatrCiśnienieWidzialnośćZjawiska
 Data    tng td wb rh cc ccl cl cm ch dir g1 g2 mslp ppp      
1999-07-10 00:00:00 19.6--- 17.6 18.388wxwxwxwx3wx--1020.5 996.3 0.0---wxw1
1999-07-10 01:00:00 19.7--- 17.5 18.387wxwxwxwx2wx--1020.2 996.0----wx
1999-07-10 02:00:00 19.2--- 17.5 18.190wxwxwxwx3wx--1020.4 996.2----wx
1999-07-10 03:00:00 19.0--- 17.3 17.990wxwxwxwx2wx--1020.4 996.2----wx
1999-07-10 04:00:00 19.0--- 17.0 17.788wxwxwxwx3wx--1020.4 996.2----wx
1999-07-10 05:00:00 19.3--- 17.1 17.987wxwxwxwx3wx--1020.7 996.5----wx
1999-07-10 06:00:00 19.4--- 15.8 17.180wxwxwxwx4wx--1020.7 996.5 0.0---wx
1999-07-10 07:00:00 20.0--- 16.1 17.578wxwxwxwx4wx--1020.6 996.4----wx
1999-07-10 08:00:00 20.0--- 15.9 17.477wxwxwxwx4wx--1020.8 996.6----wx
1999-07-10 09:00:00 20.0--- 15.7 17.376wxwxwxwx4wx--1021.3 997.1----wx
1999-07-10 10:00:00 20.5--- 16.3 17.877wxwxwxwx5wx--1021.2 997.1----wx
1999-07-10 11:00:00 21.4--- 16.3 18.173wxwxwxwxwx5wx--1020.7 996.6----wx
1999-07-10 12:00:00 23.2--- 17.4 19.470wxwxwxwx4wx--1020.2 996.3 0.0---wx
1999-07-10 13:00:00 23.2--- 16.9 19.168wxwxwxwx4wx--1019.6 995.7----wx
1999-07-10 14:00:00 23.6--- 16.7 19.165wxwxwxwx5wx--1018.7 994.9----wx
1999-07-10 15:00:00 24.0--- 16.8 19.364wxwxwxwx4wx--1018.6 994.8----wx
1999-07-10 16:00:00 24.0--- 15.9 18.861wxwxwxwxwx6wx--1018.4 994.6----wx
1999-07-10 17:00:00 23.1--- 15.9 18.564wxwxwxwxwx5wx--1018.8 994.9----wx
1999-07-10 18:00:00 22.6--- 15.9 18.366wxwxwxwxwx3wx--1018.8 994.9 0.0---wx
1999-07-10 19:00:00 21.8--- 16.0 18.170wxwxwxwx3wx--1019.5 995.5----wx
1999-07-10 20:00:00 21.4--- 15.0 17.467wxwxwxwx4wx--1019.4 995.4----wx
1999-07-10 21:00:00 20.8--- 15.8 17.673wxwxwx3wx--1019.6 995.5----wxw1
1999-07-10 22:00:00 20.4--- 15.5 17.373wxwxwx3wx--1019.3 995.2----wx
1999-07-10 23:00:00 19.8--- 14.7 16.672wxwxwx3wx--1019.0 994.9----wx

 

Źródłem pochodzenia danych jest Instytut Meteorologii i Gospodarki Wodnej – Państwowy Instytut Badawczy. Dane Instytutu Meteorologii i Gospodarki Wodnej – Państwowego Instytutu Badawczego zostały przetworzone.

Dane źródłowe można odnaleźć na stronie https://dane.imgw.pl